Ridgeville, SC (29472)

3:54 PM EST on March 01, 2015 (GMT -0500)
Summerville | Change Station
CLOSE
Current Station
Airport
Location: Summerville,
Elevation: 56 ft
Nearby Weather Stations
Active Advisory: Flood Warning

Elev 56 ft 33.06 °N, 80.28 °W | Updated 19 minutes ago

Overcast
Overcast
43 °F
Feels Like 40 °F
N
5
Wind Variable Wind from NNW

Today
High -- | Low -- °F
--% Chance of Precip.
Yesterday
High -- | Low -- °F
Precip. -- in
6:49 AM 6:18 PM
Waxing Gibbous, 87% visible
Pressure 30.41 in
Visibility 5.0 miles
Clouds Overcast 300 ft
Windchill 40 °F
Dew Point 43 °F
Humidity 100%
Rainfall 0.00 in
Snow Depth Not available.
UV 1 out of 12
Pollen 2.00 out of 12
Air Quality Not available.
Flu Activity Not available.
METAR KDYB 012035Z AUTO 34004KT 5SM BR OVC003 06/06 A3041 RMK AO1

More Conditions Fewer Conditions

Pressure 30.41 in
Visibility 5.0 miles
Clouds Overcast 300 ft
Windchill 40 °F
Dew Point 43 °F
Humidity 100%
Rainfall 0.00 in
Snow Depth Not available.
UV 1 out of 12
Pollen 2.00 out of 12
Air Quality Not available.
Flu Activity Not available.
METAR KDYB 012035Z AUTO 34004KT 5SM BR OVC003 06/06 A3041 RMK AO1

More Conditions Fewer Conditions

10-Day Weather Forecast

Almanac

Astronomy

Mar. 01, 2015 Rise Set
Actual Time
Civil Twilight
Nautical Twilight
Astronomical Twilight
Moon
Length of Visible Light
Length of Day
Tomorrow will be .
, % of the Moon is Illuminated

Today's Extremes

State Highs State Lows

Community

WunderPhotos

Upload Photos

1,801,550 photos uploaded!

WunderBlogs® & News

Nearby

Air Quality

  Air Quality AQ Index Pollutant
Not available.

Snow Depth

Station Depth Elevation

Earthquake Activity

City Distance Mag. Time & Date
Minimum magnitude displayed is 2.5.

Coastal Water Temperatures

Place Temperature

Nearby Weather Stations

Flood Warning
Statement as of 10:06 AM EST on March 01, 2015

The Flood Warning continues for
the edisto river near Givhans Ferry.
* At 9 am Sunday the stage was 10.6 feet.
* Flood stage is 10.0 feet.
* Minor flooding is occurring.
* Forecast, the river will rise to near 10.9 feet by early Tuesday
afternoon then begin a slow fall.
* At 11.0 feet, Weeks Landing in Canadys is no longer accessible.


Lat... Lon 3303 8055 3310 8053 3308 8036 3290 8037
          3290 8045 3302 8044